Time;durP1;ratioP1;P1;durP2;ratioP2;P2;SDS_P1;SDS_P2;PMS_P1;PMS_P2;Temp;Humidity;BMP_temperature;BMP_pressure;BME280_temperature;BME280_humidity;BME280_pressure;Samples;Min_cycle;Max_cycle;Signal;HPM_P1;HPM_P2
2021/10/20 00:01:00;;;;;;;4.53;3.27;;;16.10;99.90;;;;;;5026668;28;20520;-40
2021/10/20 00:03:26;;;;;;;3.33;3.03;;;16.10;99.90;;;;;;5026416;28;20244;-40
2021/10/20 00:05:51;;;;;;;3.67;3.30;;;16.10;99.90;;;;;;5026490;28;20605;-40
2021/10/20 00:08:17;;;;;;;7.03;3.00;;;16.10;99.90;;;;;;5014999;28;20310;-39
2021/10/20 00:10:43;;;;;;;3.63;3.33;;;16.10;99.90;;;;;;5025989;28;20225;-40
2021/10/20 00:13:08;;;;;;;4.03;2.87;;;16.10;99.90;;;;;;5026236;28;20217;-42
2021/10/20 00:15:34;;;;;;;3.67;2.90;;;16.10;99.90;;;;;;5025439;28;20281;-42
2021/10/20 00:18:01;;;;;;;3.60;3.30;;;16.10;99.90;;;;;;5026713;28;20269;-40
2021/10/20 00:20:27;;;;;;;5.20;3.10;;;16.10;99.90;;;;;;5026164;28;20417;-40
2021/10/20 00:22:54;;;;;;;3.60;3.30;;;16.20;99.90;;;;;;5023079;28;20851;-40
2021/10/20 00:25:21;;;;;;;3.73;3.10;;;16.20;99.90;;;;;;5023300;28;20839;-40
2021/10/20 00:27:47;;;;;;;2.60;2.40;;;16.20;99.90;;;;;;5026208;28;20437;-40
2021/10/20 00:30:15;;;;;;;3.57;3.27;;;16.20;99.90;;;;;;5026252;28;20914;-40
2021/10/20 00:32:42;;;;;;;4.07;3.67;;;16.20;99.90;;;;;;5025615;28;20421;-41
2021/10/20 00:35:08;;;;;;;3.53;3.07;;;16.20;99.90;;;;;;5025971;28;20994;-40
2021/10/20 00:37:34;;;;;;;3.70;3.30;;;16.20;99.90;;;;;;5022562;28;20464;-39
2021/10/20 00:40:00;;;;;;;3.80;3.13;;;16.20;99.90;;;;;;5024199;28;20445;-43
2021/10/20 00:42:25;;;;;;;3.40;3.00;;;16.20;99.90;;;;;;5025956;28;20220;-40
2021/10/20 00:44:55;;;;;;;4.20;3.40;;;16.10;99.90;;;;;;5025603;28;20182;-40
2021/10/20 00:47:22;;;;;;;4.40;3.03;;;16.20;99.90;;;;;;5025836;28;20413;-40
2021/10/20 00:49:48;;;;;;;3.67;2.90;;;16.10;99.90;;;;;;5026186;28;20417;-40
2021/10/20 00:52:16;;;;;;;3.50;3.20;;;16.10;99.90;;;;;;5023769;28;20455;-42
2021/10/20 00:54:41;;;;;;;3.20;2.90;;;16.20;99.90;;;;;;5017722;28;20479;-41
2021/10/20 00:57:08;;;;;;;3.43;3.13;;;16.10;99.90;;;;;;5025782;28;21022;-41
2021/10/20 00:59:36;;;;;;;4.63;3.10;;;16.10;99.90;;;;;;5025854;28;20185;-40
2021/10/20 01:02:02;;;;;;;3.90;3.60;;;16.10;99.90;;;;;;5025465;28;20437;-40
2021/10/20 01:04:29;;;;;;;3.60;3.30;;;16.10;99.90;;;;;;5025166;28;20463;-40
2021/10/20 01:06:54;;;;;;;3.87;3.40;;;16.20;99.90;;;;;;5024984;28;20440;-40
2021/10/20 01:09:20;;;;;;;7.63;3.50;;;16.10;99.90;;;;;;5016061;28;20441;-40
2021/10/20 01:11:47;;;;;;;4.10;3.10;;;16.20;99.90;;;;;;5025582;28;20244;-42
2021/10/20 01:14:13;;;;;;;4.97;3.07;;;16.10;99.90;;;;;;5024784;28;20456;-40
2021/10/20 01:16:40;;;;;;;3.70;3.33;;;16.10;99.90;;;;;;5024514;28;20437;-43
2021/10/20 01:19:06;;;;;;;3.67;3.37;;;16.10;99.90;;;;;;5025377;28;20440;-40
2021/10/20 01:21:32;;;;;;;4.20;3.90;;;16.20;99.90;;;;;;5028250;28;20440;-39
2021/10/20 01:23:59;;;;;;;3.60;3.30;;;16.20;99.90;;;;;;5015740;28;20816;-42
2021/10/20 01:26:25;;;;;;;3.50;3.20;;;16.10;99.90;;;;;;5023515;28;20448;-41
2021/10/20 01:28:51;;;;;;;4.87;3.50;;;16.10;99.90;;;;;;5025502;28;20418;-39
2021/10/20 01:31:17;;;;;;;3.87;3.57;;;16.10;99.90;;;;;;5025258;28;20559;-40
2021/10/20 01:33:42;;;;;;;5.70;3.43;;;16.10;99.90;;;;;;5024460;28;20563;-41
2021/10/20 01:36:08;;;;;;;4.07;3.53;;;16.10;99.90;;;;;;5025175;28;20202;-39
2021/10/20 01:38:34;;;;;;;3.50;3.20;;;16.10;99.90;;;;;;5016267;28;20286;-41
2021/10/20 01:41:00;;;;;;;3.30;3.00;;;16.10;99.90;;;;;;5022907;28;20516;-40
2021/10/20 01:43:41;;;;;;;3.97;3.40;;;16.10;99.90;;;;;;5024649;28;20228;-41
2021/10/20 01:46:09;;;;;;;3.60;3.30;;;16.10;99.90;;;;;;5028734;28;20190;-42
2021/10/20 01:48:35;;;;;;;3.40;3.10;;;16.10;99.90;;;;;;5028925;28;20444;-40
2021/10/20 01:51:00;;;;;;;3.20;2.90;;;16.10;99.90;;;;;;5028929;28;20777;-41
2021/10/20 01:53:26;;;;;;;3.90;3.30;;;16.10;99.90;;;;;;5021369;28;20210;-40
2021/10/20 01:55:52;;;;;;;3.40;3.10;;;16.10;99.90;;;;;;5023727;28;20580;-41
2021/10/20 01:58:18;;;;;;;4.53;3.60;;;16.10;99.90;;;;;;5029569;28;20260;-40
2021/10/20 02:00:45;;;;;;;4.57;3.70;;;16.10;99.90;;;;;;5016132;28;20186;-40
2021/10/20 02:03:11;;;;;;;3.53;3.23;;;16.10;99.90;;;;;;5028172;28;20503;-40
2021/10/20 02:05:37;;;;;;;6.13;3.93;;;16.00;99.90;;;;;;5028990;28;20425;-40
2021/10/20 02:08:03;;;;;;;3.63;3.33;;;16.00;99.90;;;;;;5025240;28;20430;-42
2021/10/20 02:10:29;;;;;;;3.80;3.50;;;16.00;99.90;;;;;;5023321;28;20963;-40
2021/10/20 02:12:55;;;;;;;4.13;3.67;;;16.00;99.90;;;;;;5028562;28;20417;-40
2021/10/20 02:15:21;;;;;;;3.40;3.10;;;16.00;99.90;;;;;;5027520;28;20924;-40
2021/10/20 02:17:46;;;;;;;3.90;3.50;;;16.00;99.90;;;;;;5028670;28;20237;-40
2021/10/20 02:20:14;;;;;;;5.27;3.60;;;16.00;99.90;;;;;;5028681;28;20257;-40
2021/10/20 02:22:42;;;;;;;3.97;3.10;;;16.00;99.90;;;;;;5040693;28;20571;-40
2021/10/20 02:25:08;;;;;;;5.37;3.83;;;16.00;99.90;;;;;;5016240;28;20440;-41
2021/10/20 02:27:34;;;;;;;3.80;3.40;;;16.00;99.90;;;;;;5028136;28;20422;-40
2021/10/20 02:30:00;;;;;;;4.33;3.50;;;16.00;99.90;;;;;;5028670;28;20435;-40
2021/10/20 02:32:26;;;;;;;4.10;3.70;;;16.00;99.90;;;;;;5028068;28;20421;-40
2021/10/20 02:34:52;;;;;;;4.53;3.63;;;16.00;99.90;;;;;;5026701;28;20465;-40
2021/10/20 02:37:17;;;;;;;4.10;3.40;;;15.90;99.90;;;;;;5028126;28;20561;-40
2021/10/20 02:39:43;;;;;;;3.93;3.43;;;15.90;99.90;;;;;;5018738;28;20658;-40
2021/10/20 02:42:09;;;;;;;4.30;3.90;;;15.90;99.90;;;;;;5027971;28;20642;-40
2021/10/20 02:44:35;;;;;;;3.57;3.27;;;15.90;99.90;;;;;;5027685;28;20202;-39
2021/10/20 02:47:00;;;;;;;3.50;3.20;;;15.90;99.90;;;;;;5027938;28;20839;-40
2021/10/20 02:49:26;;;;;;;4.20;3.70;;;15.90;99.90;;;;;;5028287;28;20221;-41
2021/10/20 02:51:52;;;;;;;4.13;3.70;;;15.90;99.90;;;;;;5028320;28;20190;-40
2021/10/20 02:54:19;;;;;;;4.40;3.50;;;15.90;99.90;;;;;;5021273;28;20268;-42
2021/10/20 02:56:46;;;;;;;3.60;3.27;;;15.90;99.90;;;;;;5028586;28;20420;-39
2021/10/20 02:59:12;;;;;;;4.60;3.37;;;15.90;99.90;;;;;;5028850;28;20437;-40
2021/10/20 03:01:37;;;;;;;5.77;3.57;;;15.90;99.90;;;;;;5028139;28;20967;-40
2021/10/20 03:04:04;;;;;;;4.10;3.70;;;16.00;99.90;;;;;;5027157;28;20824;-42
2021/10/20 03:06:30;;;;;;;3.97;3.67;;;15.90;99.90;;;;;;5027740;28;20213;-40
2021/10/20 03:08:56;;;;;;;4.90;3.70;;;15.90;99.90;;;;;;5020191;28;20913;-42
2021/10/20 03:11:22;;;;;;;4.47;4.07;;;15.90;99.90;;;;;;5025415;28;20447;-40
2021/10/20 03:13:47;;;;;;;3.90;3.50;;;15.90;99.90;;;;;;5026622;28;20220;-40
2021/10/20 03:16:13;;;;;;;3.60;3.30;;;15.90;99.90;;;;;;5026077;28;20380;-40
2021/10/20 03:18:39;;;;;;;3.87;3.53;;;15.90;99.90;;;;;;5027414;28;20241;-40
2021/10/20 03:21:04;;;;;;;3.90;3.50;;;15.90;99.90;;;;;;5027290;28;20669;-40
2021/10/20 03:23:30;;;;;;;4.57;3.60;;;15.90;99.90;;;;;;5038516;28;20188;-40
2021/10/20 03:25:56;;;;;;;4.27;3.80;;;16.00;99.90;;;;;;5021510;28;20771;-40
2021/10/20 03:28:21;;;;;;;4.40;4.00;;;15.90;99.90;;;;;;5025956;28;20265;-40
2021/10/20 03:30:47;;;;;;;4.20;3.80;;;15.90;99.90;;;;;;5027304;28;20333;-40
2021/10/20 03:33:13;;;;;;;4.30;3.87;;;15.90;99.90;;;;;;5026684;28;20613;-40
2021/10/20 03:35:38;;;;;;;5.43;3.70;;;16.00;99.90;;;;;;5027221;28;20240;-43
2021/10/20 03:38:06;;;;;;;3.80;3.37;;;16.00;99.90;;;;;;5027356;28;20221;-43
2021/10/20 03:40:35;;;;;;;4.03;3.63;;;16.00;99.90;;;;;;5013562;28;20305;-40
2021/10/20 03:43:03;;;;;;;5.70;3.77;;;16.00;99.90;;;;;;5026191;28;20445;-40
2021/10/20 03:45:28;;;;;;;4.43;4.03;;;16.00;99.90;;;;;;5027463;28;20433;-43
2021/10/20 03:47:54;;;;;;;5.20;4.00;;;16.00;99.90;;;;;;5027116;28;20417;-40
2021/10/20 03:50:20;;;;;;;4.30;3.50;;;16.00;99.90;;;;;;5027147;28;20229;-40
2021/10/20 03:52:45;;;;;;;6.53;3.70;;;16.00;99.90;;;;;;5026441;28;20557;-40
2021/10/20 03:55:12;;;;;;;4.00;3.70;;;16.00;99.90;;;;;;5014200;28;20215;-43
2021/10/20 03:57:40;;;;;;;4.27;3.87;;;16.10;99.90;;;;;;5026565;28;20623;-40
2021/10/20 04:00:08;;;;;;;3.87;3.30;;;16.00;99.90;;;;;;5026584;28;20544;-41
2021/10/20 04:02:34;;;;;;;5.90;3.80;;;16.10;99.90;;;;;;5026698;28;20705;-40
2021/10/20 04:05:00;;;;;;;4.10;3.70;;;16.00;99.90;;;;;;5026063;28;20456;-40
2021/10/20 04:07:26;;;;;;;5.43;3.80;;;16.00;99.90;;;;;;5025512;28;20212;-40
2021/10/20 04:09:51;;;;;;;4.50;4.10;;;16.00;99.90;;;;;;5018500;28;20566;-40
2021/10/20 04:12:17;;;;;;;4.67;3.47;;;16.10;99.90;;;;;;5026234;28;20190;-42
2021/10/20 04:14:43;;;;;;;4.20;3.80;;;16.10;99.90;;;;;;5024526;28;20305;-40
2021/10/20 04:17:08;;;;;;;4.80;4.20;;;16.00;99.90;;;;;;5026655;28;20616;-40
2021/10/20 04:19:34;;;;;;;4.30;3.90;;;16.00;99.90;;;;;;5026625;28;20418;-41
2021/10/20 04:22:00;;;;;;;8.80;4.43;;;16.00;99.90;;;;;;5033010;28;20334;-40
2021/10/20 04:24:25;;;;;;;5.40;4.80;;;16.00;99.90;;;;;;5033551;28;20244;-40
2021/10/20 04:26:51;;;;;;;3.93;3.63;;;16.10;99.90;;;;;;5021457;28;20179;-40
2021/10/20 04:29:17;;;;;;;4.60;4.03;;;16.00;99.90;;;;;;5025087;28;20641;-41
2021/10/20 04:31:42;;;;;;;4.60;4.20;;;16.00;99.90;;;;;;5026043;28;20200;-40
2021/10/20 04:34:08;;;;;;;5.27;4.77;;;16.10;99.90;;;;;;5025616;28;20288;-41
2021/10/20 04:36:34;;;;;;;4.17;3.77;;;16.10;99.90;;;;;;5025994;28;20252;-42
2021/10/20 04:38:59;;;;;;;4.30;3.90;;;16.00;99.90;;;;;;5022995;28;20182;-41
2021/10/20 04:41:26;;;;;;;4.73;4.33;;;16.00;99.90;;;;;;5018043;28;20269;-43
2021/10/20 04:43:51;;;;;;;5.90;4.33;;;16.00;99.90;;;;;;5025095;28;20687;-40
2021/10/20 04:46:17;;;;;;;5.20;4.70;;;16.10;99.90;;;;;;5025508;28;20437;-40
2021/10/20 04:48:43;;;;;;;11.13;3.97;;;16.10;99.90;;;;;;5025341;28;20194;-43
2021/10/20 04:51:08;;;;;;;4.40;4.00;;;16.00;99.90;;;;;;5018409;28;20668;-40
2021/10/20 04:53:34;;;;;;;5.57;4.17;;;16.00;99.90;;;;;;5024472;28;20190;-40
2021/10/20 04:56:00;;;;;;;5.47;4.00;;;16.00;99.90;;;;;;5015027;28;20202;-40
2021/10/20 04:58:26;;;;;;;4.50;4.10;;;16.00;99.90;;;;;;5025734;28;20384;-40
2021/10/20 05:00:52;;;;;;;5.53;4.63;;;16.00;99.90;;;;;;5025804;28;20439;-41
2021/10/20 05:03:17;;;;;;;5.80;4.87;;;16.00;99.90;;;;;;5025107;28;20221;-42
2021/10/20 05:05:44;;;;;;;6.27;4.60;;;15.90;99.90;;;;;;5025624;28;20300;-42
2021/10/20 05:08:10;;;;;;;4.80;4.37;;;15.90;99.90;;;;;;5025551;28;20879;-41
2021/10/20 05:10:38;;;;;;;4.43;4.03;;;16.00;99.90;;;;;;5019856;28;20625;-43
2021/10/20 05:13:04;;;;;;;4.30;3.73;;;16.00;99.90;;;;;;5025171;28;20340;-40
2021/10/20 05:15:30;;;;;;;4.33;3.80;;;16.00;99.90;;;;;;5024792;28;21013;-40
2021/10/20 05:17:55;;;;;;;6.30;4.73;;;16.00;99.90;;;;;;5025586;28;20225;-40
2021/10/20 05:20:21;;;;;;;4.40;3.97;;;16.00;99.90;;;;;;5030750;28;20190;-40
2021/10/20 05:22:48;;;;;;;4.33;3.93;;;15.90;99.90;;;;;;5044940;28;20186;-40
2021/10/20 05:25:15;;;;;;;5.30;4.80;;;15.90;99.90;;;;;;5032522;28;20179;-40
2021/10/20 05:27:42;;;;;;;4.87;4.37;;;15.90;99.90;;;;;;5031792;28;20428;-40
2021/10/20 05:30:08;;;;;;;4.90;4.40;;;16.00;99.90;;;;;;5032125;28;20515;-40
2021/10/20 05:32:34;;;;;;;5.07;4.57;;;15.90;99.90;;;;;;5032042;28;20824;-41
2021/10/20 05:35:00;;;;;;;4.87;4.47;;;16.00;99.90;;;;;;5031535;28;20474;-40
2021/10/20 05:37:25;;;;;;;5.60;4.20;;;15.90;99.90;;;;;;5030780;28;20727;-40
2021/10/20 05:39:53;;;;;;;4.83;4.33;;;16.00;99.90;;;;;;5024987;28;20687;-41
2021/10/20 05:42:19;;;;;;;5.57;4.80;;;16.00;99.90;;;;;;5026140;28;20561;-40
2021/10/20 05:44:46;;;;;;;5.90;4.70;;;16.00;99.90;;;;;;5030059;28;20840;-41
2021/10/20 05:47:11;;;;;;;5.80;4.50;;;16.00;99.90;;;;;;5031912;28;20505;-40
2021/10/20 05:49:37;;;;;;;5.40;4.90;;;16.00;99.90;;;;;;5031917;28;20535;-40
2021/10/20 05:52:04;;;;;;;5.43;4.57;;;16.00;99.90;;;;;;5031928;28;20301;-40
2021/10/20 05:54:30;;;;;;;6.73;5.10;;;15.90;99.90;;;;;;5028976;28;20206;-40
2021/10/20 05:56:56;;;;;;;5.70;5.20;;;16.00;99.90;;;;;;5018482;28;20522;-40
2021/10/20 05:59:23;;;;;;;6.23;5.10;;;16.00;99.90;;;;;;5031887;28;20421;-40
2021/10/20 06:01:50;;;;;;;11.50;5.40;;;16.00;99.90;;;;;;5032565;28;20733;-40
2021/10/20 06:04:16;;;;;;;7.13;5.10;;;16.00;99.90;;;;;;5031659;28;20508;-40
2021/10/20 06:06:43;;;;;;;5.53;4.60;;;16.00;99.90;;;;;;5031551;28;20524;-41
2021/10/20 06:09:08;;;;;;;8.03;5.63;;;16.10;99.90;;;;;;5032190;28;20721;-39
2021/10/20 06:11:34;;;;;;;5.30;4.80;;;16.00;99.90;;;;;;5016550;28;20429;-40
2021/10/20 06:14:00;;;;;;;5.50;5.00;;;16.00;99.90;;;;;;5030683;28;20202;-40
2021/10/20 06:16:26;;;;;;;5.40;4.90;;;16.10;99.90;;;;;;5028411;28;20183;-40
2021/10/20 06:18:51;;;;;;;10.50;5.30;;;16.10;99.90;;;;;;5028176;28;20210;-40
2021/10/20 06:21:17;;;;;;;5.13;4.63;;;16.10;99.90;;;;;;5031163;28;20293;-40
2021/10/20 06:23:43;;;;;;;4.70;4.30;;;16.10;99.90;;;;;;5030898;28;20691;-41
2021/10/20 06:26:08;;;;;;;5.93;5.00;;;16.10;99.90;;;;;;5021092;28;20515;-40
2021/10/20 06:28:34;;;;;;;4.70;4.30;;;16.10;99.90;;;;;;5031441;28;20222;-41
2021/10/20 06:31:00;;;;;;;5.87;4.90;;;16.10;99.90;;;;;;5034237;28;20991;-40
2021/10/20 06:33:25;;;;;;;5.60;5.20;;;16.10;99.90;;;;;;5024957;28;20187;-41
2021/10/20 06:35:51;;;;;;;5.80;5.17;;;16.10;99.90;;;;;;5029256;28;20182;-39
2021/10/20 06:38:17;;;;;;;9.00;5.07;;;16.10;99.90;;;;;;5029081;28;20212;-40
2021/10/20 06:40:43;;;;;;;5.63;5.03;;;16.10;99.90;;;;;;5019574;28;20270;-40
2021/10/20 06:43:08;;;;;;;6.03;5.13;;;16.10;99.90;;;;;;5023315;28;20190;-41
2021/10/20 06:45:35;;;;;;;5.63;5.10;;;16.10;99.90;;;;;;5028467;28;20483;-41
2021/10/20 06:48:01;;;;;;;5.90;4.93;;;16.00;99.90;;;;;;5028628;28;20201;-40
2021/10/20 06:50:26;;;;;;;5.70;5.20;;;15.90;99.90;;;;;;5028195;28;20874;-40
2021/10/20 06:52:52;;;;;;;5.20;4.70;;;16.00;99.90;;;;;;5027184;28;20985;-40
2021/10/20 06:55:18;;;;;;;5.17;4.77;;;16.00;99.90;;;;;;5023624;28;20339;-40
2021/10/20 06:57:43;;;;;;;5.60;5.00;;;16.00;99.90;;;;;;5024704;28;20569;-40
2021/10/20 07:00:10;;;;;;;5.37;4.87;;;15.90;99.90;;;;;;5028004;28;20174;-40
2021/10/20 07:02:36;;;;;;;6.17;5.57;;;15.90;99.90;;;;;;5027973;28;20441;-40
2021/10/20 07:05:04;;;;;;;5.37;4.57;;;15.80;99.90;;;;;;5027335;28;20421;-40
2021/10/20 07:07:30;;;;;;;4.90;4.40;;;15.80;99.90;;;;;;5027696;28;20636;-40
2021/10/20 07:09:55;;;;;;;5.80;4.90;;;15.80;99.90;;;;;;5030627;28;20433;-40
2021/10/20 07:12:21;;;;;;;5.80;4.63;;;15.90;99.90;;;;;;5016916;28;20448;-39
2021/10/20 07:14:48;;;;;;;7.30;5.07;;;15.90;99.90;;;;;;5025380;28;20240;-44
2021/10/20 07:17:13;;;;;;;5.10;4.60;;;15.90;99.90;;;;;;5027719;28;20217;-41
2021/10/20 07:19:39;;;;;;;5.40;4.67;;;15.90;99.90;;;;;;5027422;28;20773;-43
2021/10/20 07:22:08;;;;;;;5.70;4.93;;;16.00;99.90;;;;;;5034872;28;20197;-40
2021/10/20 07:24:35;;;;;;;5.40;4.90;;;16.10;99.90;;;;;;5046945;28;20416;-43
2021/10/20 07:27:01;;;;;;;7.53;4.70;;;16.10;99.90;;;;;;5022883;28;20440;-42
2021/10/20 07:29:27;;;;;;;6.50;4.80;;;16.10;99.90;;;;;;5027237;28;20467;-40
2021/10/20 07:31:53;;;;;;;6.10;5.23;;;16.10;99.90;;;;;;5027408;28;20813;-40
2021/10/20 07:34:18;;;;;;;5.70;5.00;;;16.00;99.90;;;;;;5026408;28;20206;-41
2021/10/20 07:36:44;;;;;;;5.63;4.90;;;16.00;99.90;;;;;;5027173;28;20665;-39
2021/10/20 07:39:11;;;;;;;7.63;5.70;;;16.00;99.90;;;;;;5027081;28;20190;-40
2021/10/20 07:41:37;;;;;;;6.20;5.10;;;16.10;99.90;;;;;;5015362;28;20433;-40
2021/10/20 07:44:03;;;;;;;5.40;4.70;;;16.10;99.90;;;;;;5021155;28;20951;-42
2021/10/20 07:46:28;;;;;;;4.70;4.30;;;16.10;99.90;;;;;;5027306;28;20198;-46
2021/10/20 07:48:54;;;;;;;4.67;4.23;;;16.10;99.90;;;;;;5026777;28;20914;-40
2021/10/20 07:51:20;;;;;;;5.50;5.00;;;16.10;99.90;;;;;;5025398;28;20251;-41
2021/10/20 07:53:46;;;;;;;5.37;4.70;;;16.10;99.90;;;;;;5026322;28;20368;-42
2021/10/20 07:56:11;;;;;;;4.87;4.47;;;16.20;99.90;;;;;;5018997;28;20336;-41
2021/10/20 07:58:37;;;;;;;6.00;5.43;;;16.20;99.90;;;;;;5021844;28;20244;-40
2021/10/20 08:01:03;;;;;;;5.90;5.30;;;16.20;99.90;;;;;;5026913;28;20277;-40
2021/10/20 08:03:29;;;;;;;6.70;4.77;;;16.20;99.90;;;;;;5024628;28;20504;-40
2021/10/20 08:05:55;;;;;;;5.83;5.33;;;16.20;99.90;;;;;;5026628;28;20233;-41
2021/10/20 08:08:21;;;;;;;8.53;5.43;;;16.30;99.90;;;;;;5026873;28;20619;-40
2021/10/20 08:10:47;;;;;;;6.00;5.40;;;16.40;99.90;;;;;;5025738;28;20571;-39
2021/10/20 08:13:13;;;;;;;5.43;4.93;;;16.50;99.90;;;;;;5025237;28;20190;-41
2021/10/20 08:15:39;;;;;;;7.07;5.37;;;16.60;99.90;;;;;;5016753;28;20463;-41
2021/10/20 08:18:06;;;;;;;6.00;4.97;;;16.60;99.90;;;;;;5026333;28;20416;-40
2021/10/20 08:20:34;;;;;;;5.50;4.93;;;16.60;99.90;;;;;;5026351;28;20472;-42
2021/10/20 08:23:01;;;;;;;5.60;4.87;;;16.50;99.90;;;;;;5040102;28;20520;-40
2021/10/20 08:25:28;;;;;;;5.37;4.77;;;16.50;99.90;;;;;;5046625;28;20431;-40
2021/10/20 08:27:54;;;;;;;6.30;5.70;;;16.60;99.90;;;;;;5016586;28;20441;-40
2021/10/20 08:30:20;;;;;;;7.20;6.13;;;16.60;99.90;;;;;;5026489;28;20434;-39
2021/10/20 08:32:48;;;;;;;9.17;5.00;;;16.50;99.90;;;;;;5025332;28;20425;-40
2021/10/20 08:35:18;;;;;;;6.13;5.53;;;16.50;99.90;;;;;;5026182;28;20465;-40
2021/10/20 08:37:45;;;;;;;6.60;5.40;;;16.50;99.90;;;;;;5026003;28;20414;-43
2021/10/20 08:40:12;;;;;;;6.10;5.43;;;16.50;99.90;;;;;;5026760;28;20732;-41
2021/10/20 08:42:39;;;;;;;6.20;5.60;;;16.50;99.90;;;;;;5016368;28;20534;-40
2021/10/20 08:45:07;;;;;;;5.77;5.17;;;16.50;99.90;;;;;;5025355;28;20432;-41
2021/10/20 08:47:35;;;;;;;7.90;5.23;;;16.50;99.90;;;;;;5026109;28;20520;-40
2021/10/20 08:50:07;;;;;;;5.93;5.23;;;16.60;99.90;;;;;;5026047;28;20883;-40
2021/10/20 08:52:34;;;;;;;5.70;5.20;;;16.60;99.90;;;;;;5025784;28;20682;-40
2021/10/20 08:55:01;;;;;;;5.50;4.77;;;16.70;99.90;;;;;;5024911;28;20460;-40
2021/10/20 08:57:26;;;;;;;6.60;5.17;;;16.90;99.90;;;;;;5015463;28;20455;-41
2021/10/20 08:59:53;;;;;;;6.10;5.50;;;17.20;99.90;;;;;;5025976;28;20448;-40
2021/10/20 09:02:22;;;;;;;12.83;6.00;;;17.50;99.90;;;;;;5024397;28;20195;-41
2021/10/20 09:04:54;;;;;;;5.47;4.70;;;17.60;99.90;;;;;;5025854;28;20943;-44
2021/10/20 09:07:20;;;;;;;5.30;4.87;;;17.70;99.90;;;;;;5025524;28;21014;-40
2021/10/20 09:09:49;;;;;;;5.87;5.10;;;17.80;99.90;;;;;;5025876;28;20456;-41
2021/10/20 09:12:26;;;;;;;8.00;5.10;;;17.70;99.90;;;;;;5014320;28;20408;-40
2021/10/20 09:14:57;;;;;;;4.97;4.57;;;17.60;99.90;;;;;;5023879;28;20819;-40
2021/10/20 09:17:23;;;;;;;5.70;5.10;;;17.50;99.90;;;;;;5026096;28;20469;-40
2021/10/20 09:19:49;;;;;;;6.00;4.97;;;17.40;99.90;;;;;;5025483;28;20480;-41
2021/10/20 09:22:15;;;;;;;7.87;5.43;;;17.40;99.90;;;;;;5034391;28;20918;-41
2021/10/20 09:24:42;;;;;;;5.80;5.00;;;17.30;99.90;;;;;;5044542;28;20201;-44
2021/10/20 09:27:26;;;;;;;6.27;5.67;;;17.30;99.90;;;;;;5026990;28;20412;-40
2021/10/20 09:30:12;;;;;;;5.73;5.13;;;17.20;99.90;;;;;;5023373;28;20425;-41
2021/10/20 09:32:38;;;;;;;5.57;5.07;;;17.20;99.90;;;;;;5025299;28;20486;-40
2021/10/20 09:35:04;;;;;;;5.70;4.80;;;17.20;99.90;;;;;;5024827;28;20472;-40
2021/10/20 09:37:31;;;;;;;6.77;5.13;;;17.10;99.90;;;;;;5025322;28;20427;-41
2021/10/20 09:40:08;;;;;;;5.23;4.73;;;17.20;99.90;;;;;;5025569;28;20782;-40
2021/10/20 09:42:48;;;;;;;5.60;4.80;;;17.20;99.90;;;;;;5015338;28;20667;-44
2021/10/20 09:45:15;;;;;;;5.10;4.70;;;17.10;99.90;;;;;;5025290;28;20620;-40
2021/10/20 09:47:42;;;;;;;5.43;4.93;;;17.10;99.90;;;;;;5025226;28;20429;-40
2021/10/20 09:50:09;;;;;;;5.27;4.77;;;17.10;99.90;;;;;;5025287;28;20425;-40
2021/10/20 09:52:52;;;;;;;7.20;4.67;;;17.10;99.90;;;;;;5025217;28;20524;-39
2021/10/20 09:55:30;;;;;;;5.07;4.57;;;17.10;99.90;;;;;;5024936;28;20483;-40
2021/10/20 09:58:16;;;;;;;5.23;4.73;;;17.10;99.90;;;;;;5016825;28;20437;-40
2021/10/20 10:00:43;;;;;;;5.10;4.70;;;17.10;99.90;;;;;;5022381;28;20541;-40
2021/10/20 10:03:10;;;;;;;5.30;4.87;;;17.00;99.90;;;;;;5024712;28;20836;-45
2021/10/20 10:05:36;;;;;;;4.60;4.20;;;17.00;99.90;;;;;;5026058;28;20436;-41
2021/10/20 10:08:03;;;;;;;8.20;5.20;;;16.90;99.90;;;;;;5029186;28;20451;-41
2021/10/20 10:10:28;;;;;;;7.13;5.43;;;17.00;99.90;;;;;;5028746;28;20200;-40
2021/10/20 10:12:59;;;;;;;5.80;5.30;;;16.90;99.90;;;;;;5016125;28;20534;-40
2021/10/20 10:15:28;;;;;;;5.63;5.13;;;17.00;99.90;;;;;;5026023;28;20472;-39
2021/10/20 10:17:55;;;;;;;5.40;4.90;;;17.00;99.90;;;;;;5028678;28;20982;-40
2021/10/20 10:20:26;;;;;;;7.40;5.00;;;17.10;99.90;;;;;;5029749;28;20905;-41
2021/10/20 10:23:02;;;;;;;7.80;5.17;;;17.20;99.90;;;;;;5041552;28;20440;-40
2021/10/20 10:25:37;;;;;;;8.77;6.10;;;17.20;99.90;;;;;;5048322;28;20936;-42
2021/10/20 10:28:17;;;;;;;5.93;5.30;;;17.10;99.90;;;;;;5024171;28;20793;-41
2021/10/20 10:30:50;;;;;;;6.40;5.80;;;17.10;99.90;;;;;;5026801;28;20433;-41
2021/10/20 10:33:20;;;;;;;6.00;5.50;;;17.10;99.90;;;;;;5027834;28;20465;-40
2021/10/20 10:36:23;;;;;;;5.20;4.80;;;17.10;99.90;;;;;;5028466;28;20843;-40
2021/10/20 10:38:58;;;;;;;7.13;5.30;;;17.00;99.90;;;;;;5019816;28;20794;-40
2021/10/20 10:41:33;;;;;;;5.97;5.03;;;16.90;99.90;;;;;;5028031;28;20448;-42
2021/10/20 10:44:06;;;;;;;6.87;5.80;;;16.90;99.90;;;;;;5016659;28;20424;-44
2021/10/20 10:46:40;;;;;;;6.20;5.10;;;16.80;99.90;;;;;;5027686;28;20424;-40
2021/10/20 10:49:26;;;;;;;6.53;5.27;;;16.80;99.90;;;;;;5028344;28;20424;-40
2021/10/20 10:52:07;;;;;;;5.90;5.40;;;16.70;99.90;;;;;;5028093;28;20983;-40
2021/10/20 10:54:51;;;;;;;5.57;5.07;;;16.70;99.90;;;;;;5027369;28;20457;-40
2021/10/20 10:57:16;;;;;;;6.73;6.13;;;16.70;99.90;;;;;;5022291;28;20464;-40
2021/10/20 10:59:53;;;;;;;6.10;5.47;;;16.70;99.90;;;;;;5023051;28;20444;-40
2021/10/20 11:02:51;;;;;;;6.53;5.93;;;16.70;99.90;;;;;;5027536;28;20186;-44
2021/10/20 11:05:20;;;;;;;7.43;6.73;;;16.70;99.90;;;;;;5027895;28;20768;-40
2021/10/20 11:07:48;;;;;;;6.10;5.57;;;16.70;99.90;;;;;;5027591;28;20425;-41
2021/10/20 11:10:16;;;;;;;6.53;5.93;;;16.60;99.90;;;;;;5029435;28;20425;-41
2021/10/20 11:12:49;;;;;;;6.43;5.83;;;16.60;99.90;;;;;;5021757;28;20939;-42
2021/10/20 11:15:16;;;;;;;6.60;6.00;;;16.60;99.90;;;;;;5025788;28;20458;-40
2021/10/20 11:17:42;;;;;;;6.77;5.73;;;16.60;99.90;;;;;;5028225;28;20425;-40
2021/10/20 11:20:14;;;;;;;6.73;5.50;;;16.50;99.90;;;;;;5026511;28;20437;-40
2021/10/20 11:22:43;;;;;;;6.47;5.87;;;16.50;99.90;;;;;;5027059;28;20731;-41
2021/10/20 11:25:11;;;;;;;6.50;5.47;;;16.50;99.90;;;;;;5027525;28;20483;-40
2021/10/20 11:27:38;;;;;;;6.37;5.77;;;16.50;99.90;;;;;;5020627;28;20437;-41
2021/10/20 11:30:05;;;;;;;6.23;5.67;;;16.50;99.90;;;;;;5023876;28;20524;-42
2021/10/20 11:32:31;;;;;;;8.03;6.70;;;16.50;99.90;;;;;;5027510;28;20529;-40
2021/10/20 11:34:58;;;;;;;6.50;5.90;;;16.50;99.90;;;;;;5026729;28;20548;-40
2021/10/20 11:37:24;;;;;;;9.63;6.40;;;16.50;99.90;;;;;;5027519;28;21023;-40
2021/10/20 11:39:56;;;;;;;5.70;5.20;;;16.50;99.90;;;;;;5027566;28;20639;-40
2021/10/20 11:42:24;;;;;;;6.77;6.07;;;16.50;99.90;;;;;;5023694;28;20444;-40
2021/10/20 11:44:50;;;;;;;8.47;7.67;;;16.50;99.90;;;;;;5019999;28;20492;-40
2021/10/20 11:47:20;;;;;;;6.60;6.00;;;16.40;99.90;;;;;;5027116;28;20524;-40
2021/10/20 11:49:51;;;;;;;6.47;5.83;;;16.40;99.90;;;;;;5027233;28;20520;-44
2021/10/20 11:52:19;;;;;;;7.10;6.40;;;16.50;99.90;;;;;;5026955;28;20429;-40
2021/10/20 11:54:45;;;;;;;7.50;6.77;;;16.50;99.90;;;;;;5026122;28;20504;-40
2021/10/20 11:57:14;;;;;;;6.40;5.63;;;16.50;99.90;;;;;;5024744;28;20972;-41
2021/10/20 11:59:40;;;;;;;6.67;5.97;;;16.50;99.90;;;;;;5019546;28;20930;-43
2021/10/20 12:02:08;;;;;;;8.53;6.30;;;16.50;99.90;;;;;;5026836;28;20429;-40
2021/10/20 12:04:34;;;;;;;8.03;7.27;;;16.50;99.90;;;;;;5026211;28;20892;-41
2021/10/20 12:07:02;;;;;;;7.90;6.30;;;16.60;99.90;;;;;;5027033;28;20453;-41
2021/10/20 12:09:30;;;;;;;6.03;5.43;;;16.50;99.90;;;;;;5026393;28;20436;-40
2021/10/20 12:11:57;;;;;;;7.33;6.20;;;16.50;99.90;;;;;;5026903;28;20517;-41
2021/10/20 12:14:33;;;;;;;10.67;6.10;;;16.50;99.90;;;;;;5010482;28;20469;-40
2021/10/20 12:17:01;;;;;;;8.70;6.70;;;16.60;99.90;;;;;;5026068;28;20919;-40
2021/10/20 12:19:33;;;;;;;6.70;6.10;;;16.60;99.90;;;;;;5026677;28;20772;-40
2021/10/20 12:22:05;;;;;;;7.27;6.40;;;16.60;99.90;;;;;;5032177;28;20903;-41
2021/10/20 12:24:42;;;;;;;6.80;5.83;;;16.70;99.90;;;;;;5046074;28;20539;-40
2021/10/20 12:27:10;;;;;;;8.93;6.47;;;16.70;99.90;;;;;;5046478;28;20435;-40
2021/10/20 12:29:45;;;;;;;8.03;6.10;;;16.80;99.90;;;;;;5011863;28;20484;-40
2021/10/20 12:32:18;;;;;;;6.33;5.70;;;16.80;99.90;;;;;;5026115;28;20432;-40
2021/10/20 12:34:57;;;;;;;7.40;6.17;;;16.90;99.90;;;;;;5025914;28;20955;-40
2021/10/20 12:37:31;;;;;;;12.70;7.33;;;16.90;99.90;;;;;;5026136;28;20516;-40
2021/10/20 12:40:05;;;;;;;7.27;6.10;;;16.90;99.90;;;;;;5026594;28;20458;-40
2021/10/20 12:42:38;;;;;;;8.47;6.57;;;16.90;99.90;;;;;;5025024;28;20432;-41
2021/10/20 12:45:07;;;;;;;7.60;6.90;;;16.90;99.90;;;;;;5026853;28;20472;-40
2021/10/20 12:47:37;;;;;;;10.80;7.10;;;16.80;99.90;;;;;;5030229;28;20830;-43